San Martin Des Andes, San Martin de los Andes Airport (SAZY)

NameSan Martin de los Andes Airport
CitySan Martin Des Andes
CountryArgentina
ICAOSAZY
IATACPC
Altitude783 m
CoordinatesGoogle Map
Live Air TrafficLiveATC.net
METARSAZY 111848Z 25031G41KT 9999 SCT045 16/05 Q1012
2019-12-11 18:48:00 Wind: West-Southwest (250°) 15.95 m/s - Visibility: > 10000 m - Temperature: 16 °C - Dew point: 5 °C - Humidity: 48.3% - Pressure: 1012 hPa
Statistics

The table below shows the detailed information of all flights to/from San Martin Des Andes, San Martin de los Andes Airport (SAZY).